EDT,Max TemperatureF,Mean TemperatureF,Min TemperatureF,Max Dew PointF,MeanDew PointF,Min DewpointF,Max Humidity, Mean Humidity, Min Humidity, Max Sea Level PressureIn, Mean Sea Level PressureIn, Min Sea Level PressureIn, Max VisibilityMiles, Mean VisibilityMiles, Min VisibilityMiles, Max Wind SpeedMPH, Mean Wind SpeedMPH, Max Gust SpeedMPH,PrecipitationIn, CloudCover, Events, WindDirDegrees
2012-10-1,61,56,51,51,49,47,89,81,72,29.96,29.80,29.69,10,10,10,14,7,22,0.04,7,Rain,230
2012-10-2,62,57,51,58,54,50,100,86,72,30.05,30.02,29.96,10,8,2,9,0,12,0.02,7,Rain,224
2012-10-3,74,67,59,66,61,57,100,90,79,30.13,30.07,30.02,10,5,0,6,1,8,0.03,8,Fog-Rain,330
2012-10-4,70,61,51,65,62,52,100,94,87,30.15,30.10,30.05,10,4,0,9,2,14,0.41,7,Fog-Rain,219
2012-10-5,75,60,45,61,52,44,100,73,46,30.05,30.01,29.89,10,4,0,13,1,22,0.11,2,Fog-Rain,208
2012-10-6,73,60,46,61,52,36,100,79,57,29.98,29.83,29.70,10,5,0,20,6,28,T,4,Fog-Rain,244
2012-10-7,52,45,37,44,38,34,100,80,59,30.09,30.05,29.99,10,9,4,8,2,33,0.18,4,Rain,252
2012-10-8,52,44,35,43,40,36,100,77,54,30.30,30.19,30.08,10,10,9,7,1,10,T,6,Rain,254
2012-10-9,57,46,34,45,41,34,100,81,61,30.28,30.21,30.11,10,9,2,9,3,13,0.00,7,,107
2012-10-10,60,52,44,54,48,40,89,80,71,30.10,29.90,29.75,10,9,3,20,8,28,0.06,7,Rain,189
2012-10-11,53,44,34,37,34,31,89,67,44,30.14,30.06,29.88,10,10,10,16,6,25,T,4,,266
2012-10-12,50,39,28,39,30,19,89,63,37,30.41,30.16,30.00,10,10,5,18,7,28,0.14,4,Rain,298
2012-10-13,50,36,22,30,23,20,96,64,31,30.50,30.41,30.26,10,10,10,14,3,18,T,1,,193
2012-10-14,63,53,43,54,46,33,93,69,45,30.18,30.04,29.88,10,8,2,13,2,22,0.82,6,Rain,89
2012-10-15,68,60,51,61,54,44,93,77,60,29.85,29.68,29.62,10,8,1,12,7,21,0.55,6,Rain,206
2012-10-16,51,41,31,43,35,31,89,70,50,29.93,29.78,29.68,10,10,10,18,7,25,0.00,4,,267
2012-10-17,59,44,28,38,34,27,100,69,37,30.01,29.97,29.93,10,10,8,7,1,12,0.00,0,,275
2012-10-18,68,52,35,46,39,33,92,62,32,30.05,30.01,29.96,10,10,10,14,6,18,0.00,1,,157
2012-10-19,66,61,56,61,56,46,100,82,64,30.00,29.78,29.67,10,5,0,28,10,38,1.08,8,Fog-Rain,135
2012-10-20,70,55,40,61,51,39,93,65,37,29.77,29.68,29.60,10,9,2,16,4,24,0.00,3,,226
2012-10-21,57,47,37,44,40,35,92,72,51,29.94,29.88,29.78,10,10,9,17,7,29,0.01,6,Rain,258
2012-10-22,62,52,41,44,42,39,83,65,46,30.05,29.99,29.93,10,10,10,18,8,25,0.00,4,,259
2012-10-23,59,47,35,46,41,35,100,79,57,30.15,30.10,30.06,10,10,7,5,1,6,0.00,2,,218
2012-10-24,55,52,49,45,37,29,86,64,41,30.21,30.16,30.12,10,10,10,7,1,12,T,8,Rain,20
2012-10-25,65,56,46,51,46,43,86,71,56,30.26,30.22,30.19,10,10,10,10,3,14,0.00,6,,179
2012-10-26,65,57,49,54,50,47,96,80,63,30.23,30.18,30.12,10,10,7,10,2,13,0.00,5,,191
2012-10-27,63,56,48,53,50,47,93,80,67,30.13,30.04,29.98,10,9,2,13,4,18,0.00,4,,123
2012-10-28,59,55,50,50,42,34,89,66,43,29.99,29.91,29.80,10,10,10,14,4,20,0.00,5,,78
2012-10-29,64,58,51,56,49,43,84,76,67,29.78,29.43,29.11,10,9,3,28,10,41,0.51,8,Rain,37
2012-10-30,65,59,53,53,48,44,72,60,48,29.49,29.39,29.18,10,10,8,31,15,44,0.11,6,Rain,140
2012-10-31,56,50,43,50,40,34,92,74,56,29.53,29.48,29.41,10,9,2,17,7,24,0.18,8,Rain,196